createdAt,value
2018-11-29T00:00:25.788Z,7.97
2018-11-29T00:03:00.691Z,6.93
2018-11-29T00:05:35.382Z,7.80
2018-11-29T00:08:10.300Z,8.20
2018-11-29T00:10:47.308Z,7.23
2018-11-29T00:15:54.949Z,6.93
2018-11-29T00:18:29.731Z,7.83
2018-11-29T00:21:04.509Z,7.07
2018-11-29T00:23:39.289Z,7.57
2018-11-29T00:26:13.984Z,7.60
2018-11-29T00:28:48.953Z,7.60
2018-11-29T00:31:23.840Z,7.60
2018-11-29T00:33:58.819Z,7.27
2018-11-29T00:36:33.588Z,7.00
2018-11-29T00:39:09.377Z,7.87
2018-11-29T00:41:44.274Z,7.20
2018-11-29T00:46:52.291Z,6.80
2018-11-29T00:52:00.290Z,7.37
2018-11-29T00:57:08.712Z,6.55
2018-11-29T00:59:43.941Z,7.23
2018-11-29T01:02:18.899Z,7.28
2018-11-29T01:04:54.017Z,7.20
2018-11-29T01:07:28.955Z,8.10
2018-11-29T01:10:04.440Z,8.43
2018-11-29T01:12:39.275Z,7.47
2018-11-29T01:15:19.497Z,7.65
2018-11-29T01:20:28.957Z,8.18
2018-11-29T01:23:03.743Z,7.80
2018-11-29T01:25:44.074Z,7.20
2018-11-29T01:28:18.960Z,8.33
2018-11-29T01:30:55.394Z,7.80
2018-11-29T01:33:30.285Z,7.40
2018-11-29T01:36:04.805Z,8.00
2018-11-29T01:38:39.640Z,7.67
2018-11-29T01:41:14.383Z,8.90
2018-11-29T01:43:49.082Z,8.10
2018-11-29T01:46:23.953Z,7.03
2018-11-29T01:48:58.724Z,8.43
2018-11-29T01:51:33.433Z,7.97
2018-11-29T01:54:08.285Z,8.60
2018-11-29T01:59:16.303Z,8.17
2018-11-29T02:01:51.287Z,9.27
2018-11-29T02:04:26.911Z,7.95
2018-11-29T02:07:01.766Z,8.00
2018-11-29T02:09:37.284Z,7.13
2018-11-29T02:12:12.289Z,8.05
2018-11-29T02:14:47.489Z,25.10
2018-11-29T02:17:21.942Z,26.63
2018-11-29T02:19:57.343Z,8.87
2018-11-29T02:22:31.940Z,7.43
2018-11-29T02:25:06.988Z,8.43
2018-11-29T02:27:41.893Z,8.87
2018-11-29T02:30:25.294Z,7.13
2018-11-29T02:32:59.901Z,7.73
2018-11-29T02:38:08.505Z,9.17
2018-11-29T02:40:47.645Z,13.05
2018-11-29T02:43:22.625Z,9.13
2018-11-29T02:45:57.302Z,7.85
2018-11-29T02:53:37.417Z,7.70
2018-11-29T02:56:12.298Z,8.40
2018-11-29T03:01:19.391Z,8.75
2018-11-29T03:03:53.920Z,7.90
2018-11-29T03:06:28.786Z,8.97
2018-11-29T03:09:04.120Z,7.70
2018-11-29T03:11:38.895Z,9.47
2018-11-29T03:14:13.953Z,9.27
2018-11-29T03:16:48.761Z,9.03
2018-11-29T03:20:55.784Z,8.48
2018-11-29T03:23:30.959Z,8.15
2018-11-29T03:26:05.320Z,8.53
2018-11-29T03:28:39.952Z,8.53
2018-11-29T03:31:14.324Z,8.17
2018-11-29T03:33:48.953Z,8.48
2018-11-29T03:36:23.323Z,8.47
2018-11-29T03:41:30.295Z,8.67
2018-11-29T03:46:37.435Z,7.92
2018-11-29T03:49:12.298Z,8.90
2018-11-29T03:51:46.949Z,7.67
2018-11-29T03:54:22.978Z,8.23
2018-11-29T03:56:57.431Z,8.43
2018-11-29T03:59:32.328Z,8.20
2018-11-29T04:02:06.916Z,7.90
2018-11-29T04:04:41.958Z,8.33
2018-11-29T04:07:16.413Z,8.07
2018-11-29T04:09:51.315Z,7.40
2018-11-29T04:12:25.750Z,8.63
2018-11-29T04:15:00.335Z,8.13
2018-11-29T04:20:08.992Z,9.07
2018-11-29T04:22:43.762Z,8.40
2018-11-29T04:25:19.364Z,8.87
2018-11-29T04:30:27.340Z,8.77
2018-11-29T04:33:01.793Z,8.20
2018-11-29T04:35:36.373Z,7.20
2018-11-29T04:38:11.290Z,8.43
2018-11-29T04:40:49.930Z,8.50
2018-11-29T04:43:24.749Z,7.17
2018-11-29T04:46:54.383Z,8.70
2018-11-29T04:49:29.332Z,7.27
2018-11-29T04:52:03.789Z,8.73
2018-11-29T04:54:39.130Z,7.72
2018-11-29T04:57:13.422Z,9.30
2018-11-29T05:07:26.679Z,8.17
2018-11-29T05:10:01.366Z,7.43
2018-11-29T05:12:36.120Z,7.30
2018-11-29T05:15:13.433Z,8.50
2018-11-29T05:17:47.903Z,8.00
2018-11-29T05:20:22.755Z,8.23
2018-11-29T05:22:57.303Z,7.93
2018-11-29T05:25:32.374Z,8.33
2018-11-29T05:28:07.311Z,8.07
2018-11-29T05:30:45.496Z,8.50
2018-11-29T05:33:20.315Z,7.67
2018-11-29T05:35:54.927Z,7.27
2018-11-29T05:38:29.421Z,7.63
2018-11-29T05:41:03.910Z,8.60
2018-11-29T05:43:38.545Z,7.50
2018-11-29T05:46:12.928Z,7.73
2018-11-29T05:48:47.789Z,7.70
2018-11-29T05:51:22.420Z,8.05
2018-11-29T05:53:57.381Z,7.30
2018-11-29T05:56:32.292Z,7.93
2018-11-29T06:01:42.376Z,7.47
2018-11-29T06:04:17.407Z,7.15
2018-11-29T06:06:52.379Z,7.03
2018-11-29T06:12:02.293Z,6.77
2018-11-29T06:14:38.301Z,7.30
2018-11-29T06:17:13.294Z,7.03
2018-11-29T06:27:21.295Z,7.10
2018-11-29T06:32:45.294Z,7.80
2018-11-29T06:35:20.311Z,6.30
2018-11-29T06:40:28.333Z,7.07
2018-11-29T06:43:03.296Z,6.93
2018-11-29T06:45:38.346Z,7.00
2018-11-29T06:48:13.303Z,7.80
2018-11-29T06:50:49.290Z,7.15
2018-11-29T06:56:14.965Z,8.00
2018-11-29T06:58:51.718Z,7.28
2018-11-29T07:04:00.301Z,7.17
2018-11-29T07:06:34.806Z,7.40
2018-11-29T07:09:11.968Z,7.50
2018-11-29T07:14:20.341Z,7.40
2018-11-29T07:16:55.476Z,8.05
2018-11-29T07:19:30.302Z,7.00
2018-11-29T07:22:06.287Z,8.13
2018-11-29T07:24:41.304Z,7.73
2018-11-29T07:27:16.304Z,7.73
2018-11-29T07:35:09.718Z,7.35
2018-11-29T07:37:44.460Z,8.10
2018-11-29T07:43:20.416Z,8.03
2018-11-29T07:45:55.300Z,7.05
2018-11-29T07:51:03.293Z,6.35
2018-11-29T07:56:11.931Z,8.17
2018-11-29T07:58:51.595Z,8.35
2018-11-29T08:01:22.427Z,8.57
2018-11-29T08:03:57.326Z,9.10
2018-11-29T08:06:32.292Z,8.63
2018-11-29T08:14:13.780Z,11.47
2018-11-29T08:16:48.356Z,10.17
2018-11-29T08:21:56.288Z,9.10
2018-11-29T08:27:04.295Z,10.20
2018-11-29T08:32:12.341Z,10.57
2018-11-29T08:34:47.338Z,9.55
2018-11-29T08:42:28.304Z,10.73
2018-11-29T08:45:03.302Z,9.97
2018-11-29T08:47:38.297Z,10.33
2018-11-29T08:50:17.467Z,9.43
2018-11-29T08:55:25.397Z,10.70
2018-11-29T08:58:00.299Z,9.83
2018-11-29T09:00:36.303Z,10.23
2018-11-29T09:03:36.288Z,10.38
2018-11-29T09:06:11.282Z,11.17
2018-11-29T09:11:19.290Z,9.80
2018-11-29T09:16:27.296Z,11.13
2018-11-29T09:21:35.296Z,9.00
2018-11-29T09:26:43.301Z,10.53
2018-11-29T09:31:51.286Z,11.03
2018-11-29T09:36:59.302Z,10.93
2018-11-29T09:42:07.695Z,11.00
2018-11-29T09:44:42.783Z,10.40
2018-11-29T09:49:50.922Z,10.75
2018-11-29T09:52:25.409Z,10.17
2018-11-29T09:55:00.333Z,10.47
2018-11-29T09:57:35.302Z,10.30
2018-11-29T10:03:05.301Z,10.33
2018-11-29T10:05:40.406Z,10.43
2018-11-29T10:08:17.297Z,11.23
2018-11-29T10:10:54.285Z,11.37
2018-11-29T10:16:01.793Z,11.33
2018-11-29T10:18:37.051Z,11.05
2018-11-29T10:21:12.341Z,10.63
2018-11-29T10:23:47.299Z,11.13
2018-11-29T10:26:22.299Z,11.28
2018-11-29T10:31:30.327Z,12.33
2018-11-29T10:36:37.936Z,12.77
2018-11-29T10:39:13.749Z,12.55
2018-11-29T10:44:22.314Z,11.33
2018-11-29T10:46:57.293Z,12.00
2018-11-29T10:49:32.312Z,11.80
2018-11-29T10:52:07.290Z,11.90
2018-11-29T10:54:41.980Z,13.30
2018-11-29T10:57:19.291Z,11.63
2018-11-29T11:02:30.484Z,11.90
2018-11-29T11:05:05.328Z,12.73
2018-11-29T11:10:13.746Z,11.80
2018-11-29T11:12:48.439Z,12.77
2018-11-29T11:15:23.317Z,12.93
2018-11-29T11:25:53.650Z,12.37
2018-11-29T11:28:28.714Z,13.90
2018-11-29T11:31:03.782Z,13.45
2018-11-29T11:33:38.961Z,15.87
2018-11-29T11:36:14.290Z,14.90
2018-11-29T11:41:22.893Z,13.63
2018-11-29T11:43:57.957Z,14.58
2018-11-29T11:46:32.373Z,13.47
2018-11-29T11:51:40.280Z,14.00
2018-11-29T11:54:15.288Z,14.05
2018-11-29T11:56:50.283Z,14.23
2018-11-29T12:01:58.315Z,12.68
2018-11-29T12:08:17.656Z,12.70
2018-11-29T12:10:54.322Z,12.17
2018-11-29T12:13:32.954Z,11.93
2018-11-29T12:16:08.279Z,11.77
2018-11-29T12:18:43.343Z,12.20
2018-11-29T12:21:18.280Z,12.63
2018-11-29T12:26:31.588Z,13.00
2018-11-29T12:29:06.775Z,13.50
2018-11-29T12:32:03.273Z,13.65
2018-11-29T12:34:38.308Z,12.70
2018-11-29T12:37:13.293Z,13.20
2018-11-29T12:39:48.297Z,12.23
2018-11-29T12:42:23.283Z,12.67
2018-11-29T12:50:05.302Z,13.70
2018-11-29T12:52:39.956Z,13.60
2018-11-29T12:55:16.385Z,13.10
2018-11-29T13:00:26.714Z,12.70
2018-11-29T13:03:02.285Z,12.27
2018-11-29T13:05:40.305Z,11.77
2018-11-29T13:08:15.295Z,13.37
2018-11-29T13:10:56.288Z,12.63
2018-11-29T13:13:31.287Z,12.47
2018-11-29T13:16:05.813Z,12.07
2018-11-29T13:18:41.295Z,11.50
2018-11-29T13:21:16.281Z,11.60
2018-11-29T13:26:24.282Z,12.73
2018-11-29T13:28:59.287Z,13.87
2018-11-29T13:31:34.499Z,12.40
2018-11-29T13:34:09.369Z,12.07
2018-11-29T13:36:44.368Z,11.97
2018-11-29T13:41:52.482Z,12.03
2018-11-29T13:44:27.388Z,12.23
2018-11-29T13:47:02.370Z,11.63
2018-11-29T13:49:37.297Z,12.40
2018-11-29T13:52:12.281Z,11.93
2018-11-29T13:57:20.285Z,13.10
2018-11-29T14:02:27.955Z,11.60
2018-11-29T14:05:02.747Z,13.13
2018-11-29T14:07:37.615Z,13.53
2018-11-29T14:10:19.141Z,13.50
2018-11-29T14:15:29.747Z,13.37
2018-11-29T14:18:04.696Z,13.67
2018-11-29T14:20:39.353Z,12.07
2018-11-29T14:23:14.271Z,12.43
2018-11-29T14:25:51.394Z,13.30
2018-11-29T14:28:26.279Z,15.53
2018-11-29T14:31:02.958Z,16.80
2018-11-29T14:33:39.945Z,13.83
2018-11-29T14:36:14.451Z,13.80
2018-11-29T14:38:49.284Z,14.40
2018-11-29T14:41:24.288Z,14.00
2018-11-29T14:46:32.277Z,13.63
2018-11-29T14:51:48.029Z,13.10
2018-11-29T14:56:50.369Z,13.75
2018-11-29T14:59:25.321Z,14.20
2018-11-29T15:01:59.910Z,14.33
2018-11-29T15:04:34.689Z,13.97
2018-11-29T15:07:09.511Z,21.10
2018-11-29T15:09:44.289Z,17.70
2018-11-29T15:12:18.757Z,12.77
2018-11-29T15:14:53.388Z,14.00
2018-11-29T15:17:28.271Z,17.10
2018-11-29T15:22:36.284Z,13.20
2018-11-29T15:25:11.998Z,14.37
2018-11-29T15:27:46.907Z,14.77
2018-11-29T15:30:23.722Z,15.63
2018-11-29T15:32:58.423Z,15.17
2018-11-29T15:38:06.449Z,14.87
2018-11-29T15:40:41.549Z,14.03
2018-11-29T15:43:16.906Z,12.68
2018-11-29T15:45:53.519Z,13.63
2018-11-29T15:48:28.277Z,14.77
2018-11-29T15:51:03.269Z,15.43
2018-11-29T15:56:12.276Z,15.13
2018-11-29T16:01:20.281Z,14.57
2018-11-29T16:06:28.357Z,13.88
2018-11-29T16:11:36.287Z,14.23
2018-11-29T16:16:44.282Z,13.98
2018-11-29T16:19:19.292Z,14.67
2018-11-29T16:21:54.287Z,15.00
2018-11-29T16:24:29.304Z,29.40
2018-11-29T16:27:03.905Z,13.13
2018-11-29T16:29:39.292Z,14.23
2018-11-29T16:32:19.932Z,12.43
2018-11-29T16:34:54.957Z,11.28
2018-11-29T16:37:29.966Z,12.50
2018-11-29T16:40:04.687Z,12.40
2018-11-29T16:42:39.370Z,11.27
2018-11-29T16:47:51.427Z,11.20
2018-11-29T16:50:26.738Z,11.07
2018-11-29T16:53:01.430Z,9.50
2018-11-29T17:03:38.950Z,10.50
2018-11-29T17:06:13.643Z,9.90
2018-11-29T17:08:48.290Z,9.40
2018-11-29T17:11:23.282Z,11.05
2018-11-29T17:16:30.737Z,8.83
2018-11-29T17:19:05.416Z,10.80
2018-11-29T17:21:40.341Z,10.68
2018-11-29T17:24:14.933Z,9.85
2018-11-29T17:29:22.892Z,9.07
2018-11-29T17:31:57.460Z,9.10
2018-11-29T17:34:32.304Z,9.03
2018-11-29T17:37:06.775Z,9.07
2018-11-29T17:39:41.669Z,8.33
2018-11-29T17:47:21.942Z,8.30
2018-11-29T17:49:57.119Z,7.93
2018-11-29T17:52:31.714Z,17.23
2018-11-29T17:55:06.337Z,8.13
2018-11-29T18:00:36.323Z,7.77
2018-11-29T18:08:22.159Z,6.60
2018-11-29T18:11:03.505Z,7.87
2018-11-29T18:14:21.631Z,6.85
2018-11-29T18:16:56.953Z,9.93
2018-11-29T18:19:31.973Z,7.07
2018-11-29T18:24:43.316Z,8.43
2018-11-29T18:30:00.402Z,8.18
2018-11-29T18:32:35.674Z,8.80
2018-11-29T18:35:11.965Z,9.00
2018-11-29T18:37:46.760Z,13.00
2018-11-29T18:43:03.792Z,10.03
2018-11-29T18:45:38.739Z,7.13
2018-11-29T18:48:15.291Z,8.90
2018-11-29T18:50:52.698Z,8.00
2018-11-29T18:53:27.277Z,8.77
2018-11-29T18:56:02.106Z,9.95
2018-11-29T18:58:36.788Z,8.67
2018-11-29T19:01:11.957Z,8.80
2018-11-29T19:03:46.754Z,8.27
2018-11-29T19:06:21.482Z,10.45
2018-11-29T19:08:56.294Z,8.60
2018-11-29T19:11:30.952Z,7.73
2018-11-29T19:14:05.499Z,8.75
2018-11-29T19:17:38.280Z,13.27
2018-11-29T19:20:15.753Z,10.87
2018-11-29T19:22:50.683Z,8.90
2018-11-29T19:25:26.075Z,8.80
2018-11-29T19:28:00.964Z,8.67
2018-11-29T19:32:17.296Z,9.63
2018-11-29T19:37:25.126Z,9.47
2018-11-29T19:40:01.296Z,10.50
2018-11-29T19:42:36.288Z,10.90
2018-11-29T19:50:27.317Z,9.70
2018-11-29T20:00:49.033Z,11.60
2018-11-29T20:03:23.932Z,10.47
2018-11-29T20:05:58.413Z,10.47
2018-11-29T20:08:33.291Z,10.40
2018-11-29T20:11:08.514Z,9.50
2018-11-29T20:13:43.298Z,21.33
2018-11-29T20:16:18.276Z,16.97
2018-11-29T20:21:25.950Z,9.28
2018-11-29T20:24:00.405Z,9.73
2018-11-29T20:26:35.289Z,11.03
2018-11-29T20:31:42.800Z,10.90
2018-11-29T20:34:18.621Z,11.05
2018-11-29T20:36:53.287Z,10.15
2018-11-29T20:42:01.294Z,9.40
2018-11-29T20:47:09.285Z,11.60
2018-11-29T20:52:16.964Z,9.77
2018-11-29T20:57:49.865Z,10.90
2018-11-29T21:00:24.747Z,11.10
2018-11-29T21:02:59.290Z,8.13
2018-11-29T21:05:34.596Z,9.40
2018-11-29T21:08:10.301Z,9.13
2018-11-29T21:10:45.299Z,15.90
2018-11-29T21:17:21.333Z,10.15
2018-11-29T21:25:02.299Z,9.00
2018-11-29T21:27:36.956Z,9.27
2018-11-29T21:30:20.300Z,10.67
2018-11-29T21:38:01.528Z,10.03
2018-11-29T21:43:10.411Z,10.03
2018-11-29T21:48:22.297Z,10.40
2018-11-29T21:50:59.292Z,10.07
2018-11-29T21:56:06.953Z,9.07
2018-11-29T21:58:41.913Z,9.30
2018-11-29T22:01:16.747Z,9.65
2018-11-29T22:03:51.536Z,9.33
2018-11-29T22:11:31.686Z,9.53
2018-11-29T22:14:06.442Z,8.27
2018-11-29T22:16:43.347Z,8.63
2018-11-29T22:19:18.344Z,8.57
2018-11-29T22:21:53.282Z,6.53
2018-11-29T22:27:01.294Z,7.50
2018-11-29T22:32:10.281Z,6.83
2018-11-29T22:37:17.739Z,6.40
2018-11-29T22:39:52.743Z,8.27
2018-11-29T22:50:06.305Z,8.60
2018-11-29T22:52:41.121Z,7.20
2018-11-29T22:55:16.344Z,7.90
2018-11-29T23:00:24.327Z,7.83
2018-11-29T23:05:32.324Z,8.03
2018-11-29T23:08:07.283Z,7.57
2018-11-29T23:10:45.035Z,7.70
2018-11-29T23:13:19.956Z,7.70
2018-11-29T23:15:54.790Z,8.13
2018-11-29T23:18:29.391Z,6.50
2018-11-29T23:21:04.292Z,6.72
2018-11-29T23:26:12.295Z,6.07
2018-11-29T23:31:19.791Z,7.22
2018-11-29T23:33:54.709Z,5.43
2018-11-29T23:36:29.285Z,7.80
2018-11-29T23:41:37.277Z,7.92
2018-11-29T23:46:45.107Z,7.47
2018-11-29T23:49:20.346Z,8.23
2018-11-29T23:51:55.314Z,7.87
2018-11-29T23:57:02.955Z,8.87
2018-11-29T23:59:39.326Z,7.80
